Adelphi, Maryland
Current Conditions -  °F | °C
As of 12:00 AM on Tuesday 23 Dec 2014 (Local Time) from KCGS Reporting Station
Overcast Overcast  
Wind Chill: 37°   Ceiling: 600
Heat Index: 37°   Visibility: 2.5mi
Dew Point: 37°   Wind: 3mph
Humidity: 100%   Direction: 340°NNW
Pressure: 30.07"   Gusts: NA
Location:  39°N, 76.97°W
Report Text: KCGS 230500Z AUTO 34003KT 2 1/2SM OVC006 03/03 A3007 RMK AO1
Loading
Personal Weather Stations






























Interactive Weather Map New forecast layout! Learn more

10-Day Weather Forecast

Advertisements
Track Severe Weather on mobile